createdAt,value
2019-03-22T00:00:29.850Z,76.90
2019-03-22T00:02:59.131Z,77.10
2019-03-22T00:05:28.452Z,77.30
2019-03-22T00:07:57.733Z,77.70
2019-03-22T00:10:27.303Z,77.90
2019-03-22T00:12:57.653Z,77.90
2019-03-22T00:15:27.234Z,78.80
2019-03-22T00:17:56.495Z,78.00
2019-03-22T00:20:25.766Z,78.30
2019-03-22T00:22:55.022Z,78.70
2019-03-22T00:25:24.302Z,78.60
2019-03-22T00:27:53.575Z,78.70
2019-03-22T00:30:22.846Z,78.70
2019-03-22T00:32:54.065Z,78.70
2019-03-22T00:35:23.094Z,78.70
2019-03-22T00:37:52.362Z,78.80
2019-03-22T00:40:21.626Z,79.20
2019-03-22T00:42:50.889Z,79.00
2019-03-22T00:45:20.147Z,79.10
2019-03-22T00:47:49.405Z,79.00
2019-03-22T00:50:18.679Z,79.10
2019-03-22T00:52:47.940Z,79.20
2019-03-22T00:55:17.206Z,79.40
2019-03-22T00:57:46.470Z,79.50
2019-03-22T01:00:15.907Z,79.40
2019-03-22T04:00:58.556Z,83.40
2019-03-22T04:03:27.820Z,83.40
2019-03-22T04:05:57.427Z,83.70
2019-03-22T04:08:26.707Z,83.80
2019-03-22T04:10:55.966Z,83.90
2019-03-22T04:13:25.542Z,83.70
2019-03-22T04:15:54.816Z,84.00
2019-03-22T04:18:24.072Z,83.60
2019-03-22T04:20:53.380Z,83.60
2019-03-22T04:23:22.680Z,83.70
2019-03-22T04:25:52.258Z,84.70
2019-03-22T04:28:21.759Z,85.40
2019-03-22T04:30:51.020Z,84.50
2019-03-22T04:33:20.348Z,84.60
2019-03-22T04:35:49.790Z,84.60
2019-03-22T04:38:19.051Z,84.80
2019-03-22T04:40:48.315Z,85.00
2019-03-22T04:43:17.574Z,85.20
2019-03-22T04:45:47.782Z,85.30
2019-03-22T04:48:23.045Z,85.20
2019-03-22T04:50:52.374Z,85.40
2019-03-22T04:53:23.287Z,85.50
2019-03-22T04:55:55.686Z,85.40
2019-03-22T04:58:27.686Z,85.40
2019-03-22T05:00:58.604Z,85.40
2019-03-22T05:03:29.191Z,85.40
2019-03-22T05:06:01.491Z,85.20
2019-03-22T05:08:34.507Z,85.10
2019-03-22T05:11:05.010Z,85.00
2019-03-22T05:13:37.323Z,85.10
2019-03-22T05:16:09.995Z,85.10
2019-03-22T05:18:40.915Z,85.00
2019-03-22T05:21:12.317Z,84.80
2019-03-22T05:23:42.650Z,84.60
2019-03-22T05:26:14.707Z,84.80
2019-03-22T05:28:44.728Z,85.30
2019-03-22T05:31:43.839Z,85.40
2019-03-22T05:34:13.102Z,85.60
2019-03-22T05:36:42.379Z,85.70
2019-03-22T05:39:11.650Z,85.70
2019-03-22T05:41:40.911Z,85.80
2019-03-22T05:44:10.195Z,86.10
2019-03-22T05:46:39.455Z,86.40
2019-03-22T05:49:09.039Z,86.40
2019-03-22T05:51:39.377Z,86.00
2019-03-22T05:54:08.647Z,85.40
2019-03-22T05:56:38.176Z,85.00
2019-03-22T05:59:07.688Z,85.00
2019-03-22T06:01:36.958Z,85.00
2019-03-22T06:04:06.231Z,85.30
2019-03-22T06:06:35.494Z,85.70
2019-03-22T06:09:07.171Z,86.50
2019-03-22T06:11:36.432Z,86.60
2019-03-22T06:14:06.362Z,86.70
2019-03-22T06:16:35.629Z,86.70
2019-03-22T06:19:05.175Z,86.80
2019-03-22T06:21:34.435Z,86.60
2019-03-22T06:24:03.870Z,86.40
2019-03-22T06:26:42.106Z,85.70
2019-03-22T06:29:11.695Z,85.40
2019-03-22T06:31:40.975Z,85.50
2019-03-22T06:34:10.240Z,85.40
2019-03-22T06:36:39.498Z,85.10
2019-03-22T06:39:09.103Z,84.50
2019-03-22T06:41:38.362Z,84.00
2019-03-22T06:44:08.016Z,84.00
2019-03-22T06:46:37.274Z,83.90
2019-03-22T06:49:06.562Z,83.40
2019-03-22T06:51:35.829Z,83.60
2019-03-22T06:54:05.087Z,84.00
2019-03-22T06:56:34.622Z,83.00
2019-03-22T06:59:03.966Z,81.70
2019-03-22T07:01:33.227Z,81.30
2019-03-22T07:04:02.494Z,81.00
2019-03-22T07:06:31.783Z,80.70
2019-03-22T07:09:01.039Z,80.10
2019-03-22T07:11:30.640Z,80.20
2019-03-22T07:13:59.912Z,80.10
2019-03-22T07:16:29.178Z,80.00
2019-03-22T07:18:58.751Z,79.90
2019-03-22T07:21:28.018Z,80.80
2019-03-22T07:23:57.322Z,79.60
2019-03-22T07:26:26.864Z,79.60
2019-03-22T07:28:56.127Z,79.80
2019-03-22T07:31:25.398Z,79.90
2019-03-22T07:33:54.664Z,79.40
2019-03-22T07:36:23.929Z,78.50
2019-03-22T07:38:53.197Z,77.90
2019-03-22T07:41:22.770Z,77.80
2019-03-22T07:43:52.038Z,77.20
2019-03-22T07:46:21.316Z,76.50
2019-03-22T07:48:50.575Z,76.10
2019-03-22T07:51:20.094Z,76.40
2019-03-22T07:53:49.364Z,74.70
2019-03-22T07:56:18.631Z,74.40
2019-03-22T07:58:47.906Z,73.20
2019-03-22T08:01:17.177Z,73.20
2019-03-22T08:03:46.448Z,73.50
2019-03-22T08:06:15.720Z,73.10
2019-03-22T08:08:45.299Z,71.70
2019-03-22T08:11:14.554Z,71.00
2019-03-22T08:13:43.819Z,70.40
2019-03-22T08:16:13.089Z,70.30
2019-03-22T08:18:42.378Z,68.90
2019-03-22T08:21:11.906Z,69.00
2019-03-22T08:23:42.277Z,68.40
2019-03-22T08:26:12.068Z,68.60
2019-03-22T08:28:41.357Z,67.90
2019-03-22T08:31:10.618Z,66.00
2019-03-22T08:33:39.880Z,65.40
2019-03-22T08:36:09.161Z,66.40
2019-03-22T08:38:38.427Z,66.10
2019-03-22T08:41:07.959Z,64.90
2019-03-22T08:43:37.250Z,64.40
2019-03-22T08:46:06.498Z,63.30
2019-03-22T08:48:35.847Z,63.20
2019-03-22T08:51:05.366Z,63.20
2019-03-22T08:53:34.631Z,62.80
2019-03-22T08:56:04.008Z,61.90
2019-03-22T08:58:33.244Z,61.10
2019-03-22T09:01:02.516Z,60.50
2019-03-22T09:03:31.790Z,60.00
2019-03-22T09:06:01.066Z,60.20
2019-03-22T09:08:30.331Z,59.80
2019-03-22T09:10:59.614Z,59.50
2019-03-22T09:13:28.872Z,59.20
2019-03-22T09:15:58.143Z,59.10
2019-03-22T09:18:27.436Z,58.50
2019-03-22T09:20:56.705Z,58.00
2019-03-22T09:23:26.298Z,56.80
2019-03-22T09:25:55.899Z,56.40
2019-03-22T09:28:25.239Z,55.90
2019-03-22T09:30:54.618Z,54.80
2019-03-22T09:33:23.906Z,54.40
2019-03-22T09:35:53.411Z,54.10
2019-03-22T09:38:22.705Z,54.60
2019-03-22T09:40:51.938Z,52.30
2019-03-22T09:43:21.210Z,52.20
2019-03-22T09:45:50.474Z,50.80
2019-03-22T09:48:20.130Z,48.80
2019-03-22T09:50:49.403Z,48.90
2019-03-22T09:53:18.725Z,48.70
2019-03-22T09:55:48.134Z,48.00
2019-03-22T09:58:17.481Z,48.40
2019-03-22T10:00:48.537Z,47.40
2019-03-22T10:03:17.811Z,48.40
2019-03-22T10:05:47.182Z,48.30
2019-03-22T10:08:16.437Z,47.20
2019-03-22T10:10:45.763Z,47.80
2019-03-22T10:13:15.046Z,45.60
2019-03-22T10:15:45.426Z,45.20
2019-03-22T10:18:14.736Z,44.80
2019-03-22T10:20:43.987Z,44.30
2019-03-22T10:23:13.282Z,45.10
2019-03-22T10:25:42.522Z,44.20
2019-03-22T10:28:11.840Z,43.30
2019-03-22T10:30:41.158Z,43.40
2019-03-22T10:33:22.046Z,43.00
2019-03-22T10:35:41.426Z,42.40
2019-03-22T10:38:16.525Z,40.40
2019-03-22T10:40:41.639Z,40.80
2019-03-22T10:43:10.963Z,41.70
2019-03-22T10:45:40.515Z,40.60
2019-03-22T10:48:09.817Z,41.40
2019-03-22T10:50:39.132Z,42.20
2019-03-22T10:53:08.395Z,40.80
2019-03-22T10:55:37.683Z,41.70
2019-03-22T10:58:20.320Z,42.20
2019-03-22T11:00:37.938Z,41.60
2019-03-22T11:03:07.190Z,41.20
2019-03-22T11:05:36.466Z,40.50
2019-03-22T11:08:05.734Z,41.90
2019-03-22T11:10:47.927Z,42.00
2019-03-22T11:13:17.250Z,39.80
2019-03-22T11:15:48.823Z,40.60
2019-03-22T11:18:17.487Z,40.30
2019-03-22T11:20:46.755Z,41.20
2019-03-22T11:23:17.088Z,40.60
2019-03-22T11:25:46.350Z,40.60
2019-03-22T11:28:15.625Z,40.40
2019-03-22T11:30:44.890Z,40.90
2019-03-22T11:33:14.178Z,41.20
2019-03-22T11:35:43.450Z,40.80
2019-03-22T11:38:12.727Z,41.00
2019-03-22T11:40:41.990Z,41.80
2019-03-22T11:43:11.259Z,42.40
2019-03-22T11:45:40.526Z,42.60
2019-03-22T11:48:09.802Z,43.20
2019-03-22T11:50:39.078Z,42.40
2019-03-22T11:53:08.337Z,42.60
2019-03-22T11:55:37.607Z,43.00
2019-03-22T11:58:07.167Z,41.40
2019-03-22T12:00:36.438Z,42.10
2019-03-22T12:03:06.070Z,41.80
2019-03-22T12:05:40.341Z,41.90
2019-03-22T12:08:06.378Z,41.30
2019-03-22T12:10:35.664Z,41.50
2019-03-22T12:13:05.431Z,41.00
2019-03-22T12:15:34.698Z,39.00
2019-03-22T12:18:04.442Z,38.30
2019-03-22T12:20:33.706Z,38.50
2019-03-22T12:23:03.003Z,38.10
2019-03-22T12:25:32.256Z,38.80
2019-03-22T12:28:01.546Z,37.90
2019-03-22T12:30:30.894Z,36.80
2019-03-22T12:33:00.158Z,36.50
2019-03-22T12:35:29.422Z,37.50
2019-03-22T12:37:58.694Z,37.50
2019-03-22T12:40:28.022Z,35.40
2019-03-22T12:42:57.322Z,35.20
2019-03-22T12:45:28.942Z,35.00
2019-03-22T12:47:58.193Z,35.20
2019-03-22T12:50:27.714Z,35.60
2019-03-22T12:52:56.980Z,35.00
2019-03-22T12:55:27.218Z,33.80
2019-03-22T12:57:56.957Z,33.90
2019-03-22T13:00:26.650Z,32.50
2019-03-22T13:02:56.379Z,31.70
2019-03-22T13:05:25.879Z,31.80
2019-03-22T13:07:55.158Z,32.00
2019-03-22T13:10:25.862Z,32.10
2019-03-22T13:12:55.207Z,33.70
2019-03-22T13:15:24.474Z,32.40
2019-03-22T13:17:53.739Z,32.40
2019-03-22T13:20:23.022Z,32.70
2019-03-22T13:22:52.527Z,30.80
2019-03-22T13:25:21.795Z,30.60
2019-03-22T13:27:51.344Z,30.60
2019-03-22T13:30:37.272Z,30.30
2019-03-22T13:33:06.602Z,30.00
2019-03-22T13:35:35.873Z,29.50
2019-03-22T13:38:05.373Z,28.40
2019-03-22T13:40:34.635Z,29.20
2019-03-22T13:43:03.898Z,28.60
2019-03-22T13:45:33.169Z,28.40
2019-03-22T13:48:02.434Z,27.50
2019-03-22T13:50:31.711Z,26.80
2019-03-22T13:53:00.971Z,26.50
2019-03-22T13:55:30.235Z,26.30
2019-03-22T13:57:59.531Z,25.50
2019-03-22T14:00:28.852Z,24.90
2019-03-22T14:03:02.946Z,24.50
2019-03-22T14:05:29.395Z,23.70
2019-03-22T14:07:58.658Z,23.30
2019-03-22T14:10:32.590Z,23.20
2019-03-22T14:13:03.090Z,22.30
2019-03-22T14:15:32.366Z,22.90
2019-03-22T14:18:01.899Z,22.70
2019-03-22T14:20:32.398Z,22.70
2019-03-22T14:23:01.670Z,23.20
2019-03-22T14:25:32.206Z,23.10
2019-03-22T14:28:01.474Z,23.40
2019-03-22T14:30:30.729Z,23.30
2019-03-22T14:33:00.002Z,23.50
2019-03-22T14:35:29.283Z,23.20
2019-03-22T14:37:58.543Z,24.00
2019-03-22T14:40:27.809Z,24.00
2019-03-22T14:42:57.066Z,23.20
2019-03-22T14:45:26.370Z,23.40
2019-03-22T14:47:56.850Z,23.70
2019-03-22T14:50:26.115Z,24.00
2019-03-22T14:52:55.661Z,22.70
2019-03-22T14:55:25.259Z,23.00
2019-03-22T14:57:54.528Z,23.20
2019-03-22T15:00:23.788Z,23.40
2019-03-22T15:02:53.058Z,22.80
2019-03-22T15:05:22.340Z,22.60
2019-03-22T15:07:51.595Z,22.50
2019-03-22T15:10:20.858Z,22.50
2019-03-22T15:12:50.292Z,22.70
2019-03-22T15:15:27.034Z,22.60
2019-03-22T15:18:10.013Z,22.70
2019-03-22T15:20:57.550Z,23.00
2019-03-22T15:23:45.021Z,23.20
2019-03-22T15:26:32.862Z,23.40
2019-03-22T15:29:10.731Z,22.70
2019-03-22T15:31:44.603Z,23.70
2019-03-22T15:34:15.526Z,23.60
2019-03-22T15:37:02.929Z,23.80
2019-03-22T15:39:51.950Z,23.50
2019-03-22T15:42:21.211Z,23.90
2019-03-22T15:44:50.500Z,23.30
2019-03-22T15:47:20.122Z,24.10
2019-03-22T15:49:49.383Z,24.60
2019-03-22T15:52:18.663Z,24.00
2019-03-22T15:54:48.227Z,25.30
2019-03-22T15:57:17.912Z,26.00
2019-03-22T15:59:47.171Z,25.00
2019-03-22T16:02:16.438Z,25.50
2019-03-22T16:04:45.699Z,25.50
2019-03-22T16:07:14.983Z,25.80
2019-03-22T16:09:44.551Z,26.10
2019-03-22T16:12:13.815Z,26.70
2019-03-22T16:14:44.158Z,27.10
2019-03-22T16:17:13.430Z,28.00
2019-03-22T16:19:42.707Z,28.80
2019-03-22T16:22:11.971Z,29.20
2019-03-22T16:24:41.234Z,29.10
2019-03-22T16:27:10.607Z,29.40
2019-03-22T16:29:39.854Z,29.60
2019-03-22T16:32:09.314Z,30.00
2019-03-22T16:34:38.594Z,30.40
2019-03-22T16:37:07.863Z,31.30
2019-03-22T16:39:38.111Z,31.20
2019-03-22T16:42:07.378Z,32.80
2019-03-22T16:44:36.734Z,31.60
2019-03-22T16:47:06.328Z,32.00
2019-03-22T16:49:36.455Z,32.50
2019-03-22T16:52:05.722Z,33.40
2019-03-22T16:54:34.983Z,33.50
2019-03-22T16:57:04.319Z,33.30
2019-03-22T16:59:33.587Z,33.60
2019-03-22T17:02:02.854Z,34.10
2019-03-22T17:04:32.150Z,34.30
2019-03-22T17:07:01.414Z,34.70
2019-03-22T17:09:30.686Z,35.00
2019-03-22T17:12:00.215Z,36.00
2019-03-22T17:14:31.025Z,35.60
2019-03-22T17:17:00.610Z,35.70
2019-03-22T17:19:29.896Z,35.90
2019-03-22T17:21:59.154Z,36.20
2019-03-22T17:24:28.442Z,36.30
2019-03-22T17:26:57.794Z,36.40
2019-03-22T17:29:27.054Z,36.80
2019-03-22T17:31:56.313Z,37.30
2019-03-22T17:34:25.589Z,37.90
2019-03-22T17:36:54.854Z,38.40
2019-03-22T17:39:24.116Z,38.80
2019-03-22T17:41:53.389Z,38.90
2019-03-22T17:44:22.657Z,39.30
2019-03-22T17:46:52.234Z,39.50
2019-03-22T17:49:21.498Z,40.90
2019-03-22T17:51:50.762Z,41.30
2019-03-22T17:54:20.031Z,41.70
2019-03-22T17:56:49.294Z,41.70
2019-03-22T17:59:18.570Z,43.00
2019-03-22T18:01:48.008Z,42.20
2019-03-22T18:04:24.150Z,42.30
2019-03-22T18:06:48.230Z,42.30
2019-03-22T18:09:17.497Z,42.80
2019-03-22T18:11:46.758Z,43.60
2019-03-22T18:14:16.996Z,44.60
2019-03-22T18:16:46.331Z,44.30
2019-03-22T18:19:15.596Z,44.20
2019-03-22T18:21:44.867Z,44.10
2019-03-22T18:24:14.419Z,44.10
2019-03-22T18:26:43.683Z,45.70
2019-03-22T18:29:12.946Z,46.00
2019-03-22T18:31:42.231Z,46.30
2019-03-22T18:34:11.486Z,46.70
2019-03-22T18:36:41.498Z,46.70
2019-03-22T18:39:10.734Z,47.50
2019-03-22T18:41:40.017Z,47.60
2019-03-22T18:44:09.280Z,47.90
2019-03-22T18:46:38.562Z,48.70
2019-03-22T18:49:07.833Z,49.00
2019-03-22T18:51:37.097Z,48.60
2019-03-22T18:54:06.362Z,48.30
2019-03-22T18:56:35.632Z,48.40
2019-03-22T18:59:04.971Z,48.30
2019-03-22T19:01:34.562Z,48.70
2019-03-22T19:04:04.183Z,48.30
2019-03-22T19:06:33.446Z,48.70
2019-03-22T19:09:02.721Z,48.80
2019-03-22T19:11:33.059Z,50.20
2019-03-22T19:14:02.334Z,51.50
2019-03-22T19:16:31.667Z,51.90
2019-03-22T19:19:01.169Z,52.30
2019-03-22T19:21:30.477Z,52.20
2019-03-22T19:24:00.018Z,52.40
2019-03-22T19:26:30.576Z,52.60
2019-03-22T19:29:00.047Z,53.20
2019-03-22T19:31:29.327Z,53.60
2019-03-22T19:33:58.594Z,53.80
2019-03-22T19:36:27.858Z,54.50
2019-03-22T19:38:57.159Z,54.20
2019-03-22T19:41:26.422Z,53.90
2019-03-22T19:43:55.718Z,54.50
2019-03-22T19:46:24.977Z,54.60
2019-03-22T19:48:54.486Z,55.40
2019-03-22T19:51:23.766Z,55.60
2019-03-22T19:53:53.487Z,56.30
2019-03-22T19:56:22.753Z,56.80
2019-03-22T19:58:52.028Z,56.90
2019-03-22T20:01:21.591Z,56.90
2019-03-22T20:03:50.867Z,57.40
2019-03-22T20:06:20.152Z,57.70
2019-03-22T20:08:49.701Z,58.00
2019-03-22T20:11:19.021Z,58.40
2019-03-22T20:13:48.715Z,58.40
2019-03-22T20:16:17.991Z,58.60
2019-03-22T20:18:47.278Z,58.80
2019-03-22T20:21:16.550Z,59.00
2019-03-22T20:23:53.612Z,59.20
2019-03-22T20:26:16.798Z,59.40
2019-03-22T20:28:46.071Z,59.50
2019-03-22T20:31:15.343Z,60.10
2019-03-22T20:33:44.631Z,59.90
2019-03-22T20:36:13.931Z,60.30
2019-03-22T20:38:43.262Z,60.80
2019-03-22T20:41:12.522Z,60.80
2019-03-22T20:43:41.799Z,60.80
2019-03-22T20:46:11.982Z,61.00
2019-03-22T20:48:41.502Z,61.10
2019-03-22T20:51:10.774Z,61.10
2019-03-22T20:53:40.915Z,61.10
2019-03-22T20:56:10.214Z,61.50
2019-03-22T20:58:40.779Z,60.80
2019-03-22T21:01:10.080Z,61.20
2019-03-22T21:03:39.342Z,61.80
2019-03-22T21:06:08.630Z,62.20
2019-03-22T21:08:38.179Z,62.90
2019-03-22T21:11:07.430Z,63.30
2019-03-22T21:13:36.710Z,63.10
2019-03-22T21:16:05.974Z,63.50
2019-03-22T21:18:35.255Z,64.30
2019-03-22T21:21:04.884Z,64.60
2019-03-22T21:23:36.655Z,64.80
2019-03-22T21:26:05.474Z,65.20
2019-03-22T21:28:34.745Z,65.50
2019-03-22T21:31:04.040Z,65.90
2019-03-22T21:33:33.323Z,66.00
2019-03-22T21:36:02.843Z,66.30
2019-03-22T21:38:32.115Z,66.60
2019-03-22T21:41:01.378Z,66.70
2019-03-22T21:43:30.659Z,66.80
2019-03-22T21:45:59.934Z,67.30
2019-03-22T21:48:29.198Z,67.20
2019-03-22T21:50:58.855Z,67.40
2019-03-22T21:53:28.113Z,67.50
2019-03-22T21:55:57.380Z,67.40
2019-03-22T21:58:26.639Z,67.20
2019-03-22T22:00:55.911Z,66.90
2019-03-22T22:03:25.174Z,67.40
2019-03-22T22:05:54.439Z,67.90
2019-03-22T22:08:23.703Z,68.10
2019-03-22T22:10:59.588Z,68.00
2019-03-22T22:13:24.206Z,68.50
2019-03-22T22:15:53.466Z,69.00
2019-03-22T22:18:23.014Z,69.30
2019-03-22T22:20:52.273Z,69.60
2019-03-22T22:23:21.614Z,69.10
2019-03-22T22:25:50.974Z,69.40
2019-03-22T22:28:20.422Z,69.50
2019-03-22T22:30:49.682Z,69.40
2019-03-22T22:33:18.948Z,69.00
2019-03-22T22:35:58.153Z,69.00
2019-03-22T22:38:20.238Z,68.70
2019-03-22T22:40:49.502Z,69.00
2019-03-22T22:43:18.758Z,69.10
2019-03-22T22:45:48.026Z,69.30
2019-03-22T22:48:17.283Z,69.60
2019-03-22T22:50:46.542Z,70.20
2019-03-22T22:53:16.105Z,69.30
2019-03-22T22:55:45.383Z,69.50
2019-03-22T22:58:14.647Z,69.60
2019-03-22T23:00:44.418Z,70.00
2019-03-22T23:03:13.783Z,70.40
2019-03-22T23:05:43.221Z,70.80
2019-03-22T23:08:12.734Z,71.10
2019-03-22T23:10:41.999Z,71.40
2019-03-22T23:13:11.278Z,71.20
2019-03-22T23:15:40.843Z,71.10
2019-03-22T23:18:10.126Z,70.70
2019-03-22T23:20:39.382Z,70.70
2019-03-22T23:23:08.648Z,71.60
2019-03-22T23:25:37.923Z,70.90
2019-03-22T23:28:07.242Z,71.20
2019-03-22T23:30:36.865Z,71.50
2019-03-22T23:33:06.114Z,72.10
2019-03-22T23:35:35.375Z,72.50
2019-03-22T23:38:04.643Z,73.00
2019-03-22T23:40:33.923Z,73.20
2019-03-22T23:43:03.181Z,73.20
2019-03-22T23:45:32.521Z,73.90
2019-03-22T23:48:01.777Z,73.90
2019-03-22T23:50:31.042Z,73.70
2019-03-22T23:53:01.282Z,73.80
2019-03-22T23:55:30.546Z,74.00
2019-03-22T23:57:59.810Z,73.90
